Main page
METAR-TAF:

METAR-TAF

Airports :

Mont-De-Marsan, France

latitude: 43-55N, longitude: 000-30W, elevation: 62 m

Current weather observation

The report was made 11 minutes ago, at 01:30 UTC
Wind 4 kt from the West/Southwest
Temperature 20°C
Humidity 94%
Pressure 1021 hPa
Visibility: 9000 m
Overcast at a height of 700 ft

METAR: LFBM 220130Z AUTO 25004KT 9000 OVC007 20/19 Q1021 TEMPO OVC003

Time: 03:41 (01:41 UTC)

Forecast

The report was made 5 hours and 41 minutes ago, at 20:00 UTC
Forecast valid from 21 at 21 UTC to 22 at 21 UTC
Wind 8 kt from the West/Southwest
Visibility 10 km or more
no clouds below 1500 m and no cumulonimbus
Becoming
from 21 at 22 UTC to 21 at 24 UTC
Broken clouds at a height of 800 ft
Probability 40% :
Temporary
from 22 at 00 UTC to 22 at 04 UTC
Overcast at a height of 300 ft
Becoming
from 22 at 05 UTC to 22 at 07 UTC

TAF: LFBM 212000Z 2121/2221 25008KT CAVOK BECMG 2122/2124 BKN008 PROB40 TEMPO 2200/2204 OVC003 BECMG 2205/2207 NSC

Weather observations and forecasts of more than 4000 airports (METAR and TAF reports).

The available stations are represented by yellow and red dots on the map.

Hover mouse over dot to see the name of the station.

Then click to see weather observations and forecasts.

To change the map : click on the green buttons with a black cross to zoom in, on the green button with a dash to zoom out, or on the green arrows for adjacent maps.


METAR-TAF: